createdAt,value
2019-06-26T00:00:50.382Z,99.99
2019-06-26T00:01:50.270Z,99.99
2019-06-26T00:02:50.192Z,99.99
2019-06-26T00:03:50.138Z,99.99
2019-06-26T00:04:50.039Z,99.99
2019-06-26T00:05:49.978Z,99.99
2019-06-26T00:06:49.862Z,99.99
2019-06-26T00:07:49.801Z,99.99
2019-06-26T00:08:49.713Z,99.99
2019-06-26T00:09:49.618Z,99.99
2019-06-26T00:10:49.542Z,99.99
2019-06-26T00:11:49.472Z,99.99
2019-06-26T00:12:49.380Z,99.99
2019-06-26T00:13:49.298Z,99.99
2019-06-26T00:14:49.218Z,99.99
2019-06-26T00:15:49.134Z,99.99
2019-06-26T00:16:49.052Z,99.99
2019-06-26T00:17:48.980Z,99.99
2019-06-26T00:18:48.923Z,99.99
2019-06-26T00:19:48.818Z,99.99
2019-06-26T00:20:48.737Z,99.99
2019-06-26T00:21:48.684Z,99.99
2019-06-26T00:22:48.560Z,99.99
2019-06-26T00:23:48.485Z,99.99
2019-06-26T00:24:48.409Z,99.99
2019-06-26T00:25:48.325Z,99.99
2019-06-26T00:26:48.242Z,99.99
2019-06-26T00:27:48.163Z,99.99
2019-06-26T00:28:48.080Z,99.99
2019-06-26T00:29:48.007Z,99.99
2019-06-26T00:30:47.912Z,99.99
2019-06-26T00:31:47.835Z,99.99
2019-06-26T00:32:47.754Z,99.99
2019-06-26T00:33:47.677Z,99.99
2019-06-26T00:34:47.594Z,99.99
2019-06-26T00:35:47.520Z,99.99
2019-06-26T00:36:47.436Z,99.99
2019-06-26T00:37:47.345Z,99.99
2019-06-26T00:38:47.265Z,99.99
2019-06-26T00:39:47.199Z,99.99
2019-06-26T00:40:47.109Z,99.99
2019-06-26T00:41:47.020Z,99.99
2019-06-26T00:42:46.945Z,99.99
2019-06-26T00:43:46.867Z,99.99
2019-06-26T00:44:46.779Z,99.99
2019-06-26T00:45:46.695Z,99.99
2019-06-26T00:46:46.648Z,99.99
2019-06-26T00:47:46.539Z,99.99
2019-06-26T00:48:46.463Z,99.99
2019-06-26T00:49:46.386Z,99.99
2019-06-26T00:50:46.297Z,99.99
2019-06-26T00:51:46.210Z,99.55
2019-06-26T00:52:46.131Z,99.84
2019-06-26T00:53:46.054Z,99.94
2019-06-26T00:54:45.988Z,99.79
2019-06-26T00:55:45.887Z,99.31
2019-06-26T00:56:45.813Z,99.41
2019-06-26T00:57:45.723Z,99.41
2019-06-26T00:58:45.654Z,99.31
2019-06-26T00:59:45.555Z,98.35
2019-06-26T01:00:45.513Z,97.86
2019-06-26T01:01:45.408Z,96.65
2019-06-26T01:02:45.321Z,96.75
2019-06-26T01:03:45.246Z,96.22
2019-06-26T01:04:45.169Z,94.33
2019-06-26T01:05:45.107Z,94.09
2019-06-26T01:06:44.999Z,93.36
2019-06-26T01:07:44.912Z,92.30
2019-06-26T01:08:44.834Z,89.92
2019-06-26T01:09:44.746Z,88.71
2019-06-26T01:10:44.663Z,87.30
2019-06-26T01:11:44.594Z,86.57
2019-06-26T01:12:44.508Z,84.92
2019-06-26T01:13:57.421Z,84.67
2019-06-26T01:14:44.348Z,84.47
2019-06-26T01:15:44.262Z,83.99
2019-06-26T01:16:44.174Z,83.12
2019-06-26T01:17:44.094Z,83.12
2019-06-26T01:18:44.013Z,83.70
2019-06-26T01:19:43.941Z,82.63
2019-06-26T01:20:43.854Z,82.38
2019-06-26T01:21:43.769Z,81.90
2019-06-26T01:22:43.690Z,81.45
2019-06-26T01:23:43.612Z,81.16
2019-06-26T01:24:43.560Z,81.06
2019-06-26T01:25:43.463Z,80.87
2019-06-26T01:26:43.370Z,80.48
2019-06-26T01:27:43.291Z,80.58
2019-06-26T01:28:43.209Z,80.09
2019-06-26T01:29:43.124Z,80.29
2019-06-26T01:30:43.055Z,79.74
2019-06-26T01:31:43.021Z,79.25
2019-06-26T01:32:42.900Z,78.77
2019-06-26T01:33:42.796Z,79.25
2019-06-26T01:34:42.732Z,79.25
2019-06-26T01:35:42.640Z,79.45
2019-06-26T01:36:42.561Z,78.58
2019-06-26T01:37:42.486Z,79.39
2019-06-26T01:38:42.407Z,78.61
2019-06-26T01:39:42.322Z,77.74
2019-06-26T01:40:42.246Z,77.94
2019-06-26T01:41:42.169Z,77.45
2019-06-26T01:42:42.092Z,77.55
2019-06-26T01:43:42.010Z,77.84
2019-06-26T01:44:41.918Z,77.94
2019-06-26T01:45:41.838Z,78.03
2019-06-26T01:46:41.808Z,77.94
2019-06-26T01:47:41.686Z,78.33
2019-06-26T01:48:41.625Z,78.17
2019-06-26T01:49:41.558Z,77.48
2019-06-26T01:50:41.440Z,77.48
2019-06-26T01:51:41.357Z,77.20
2019-06-26T01:52:41.272Z,77.53
2019-06-26T01:53:41.192Z,76.55
2019-06-26T01:54:41.135Z,77.04
2019-06-26T01:55:41.027Z,76.94
2019-06-26T01:56:40.944Z,75.97
2019-06-26T01:57:40.879Z,76.94
2019-06-26T01:58:40.788Z,77.04
2019-06-26T01:59:40.722Z,76.75
2019-06-26T02:00:40.629Z,77.53
2019-06-26T02:01:40.548Z,77.72
2019-06-26T02:02:40.467Z,77.33
2019-06-26T02:03:40.392Z,76.78
2019-06-26T02:04:40.315Z,76.94
2019-06-26T02:05:40.223Z,75.97
2019-06-26T02:06:40.144Z,76.84
2019-06-26T02:07:40.085Z,76.65
2019-06-26T02:08:40.003Z,76.94
2019-06-26T02:09:39.921Z,76.45
2019-06-26T02:10:39.834Z,76.45
2019-06-26T02:11:39.750Z,76.84
2019-06-26T02:12:39.677Z,76.65
2019-06-26T02:13:39.593Z,76.75
2019-06-26T02:14:39.517Z,76.84
2019-06-26T02:15:39.429Z,76.75
2019-06-26T02:16:39.364Z,76.94
2019-06-26T02:17:39.265Z,77.04
2019-06-26T02:18:39.217Z,77.14
2019-06-26T02:19:39.111Z,77.53
2019-06-26T02:20:39.074Z,77.29
2019-06-26T02:21:38.962Z,77.58
2019-06-26T02:22:38.886Z,77.97
2019-06-26T02:23:38.792Z,78.17
2019-06-26T02:24:38.709Z,78.07
2019-06-26T02:25:38.626Z,77.62
2019-06-26T02:26:38.551Z,77.82
2019-06-26T02:27:38.485Z,77.43
2019-06-26T02:28:38.390Z,77.62
2019-06-26T02:29:38.313Z,77.33
2019-06-26T02:30:38.242Z,77.43
2019-06-26T02:31:38.155Z,77.72
2019-06-26T02:32:38.062Z,77.33
2019-06-26T02:33:38.013Z,77.33
2019-06-26T02:34:37.924Z,76.55
2019-06-26T02:35:37.850Z,77.43
2019-06-26T02:36:37.758Z,77.53
2019-06-26T02:37:37.682Z,77.33
2019-06-26T02:38:37.604Z,76.94
2019-06-26T02:39:37.508Z,77.43
2019-06-26T02:40:37.432Z,76.45
2019-06-26T02:41:37.347Z,76.75
2019-06-26T02:42:37.277Z,76.45
2019-06-26T02:43:37.197Z,76.55
2019-06-26T02:44:52.058Z,76.75
2019-06-26T02:45:37.021Z,76.75
2019-06-26T02:46:36.950Z,76.75
2019-06-26T02:47:36.881Z,77.14
2019-06-26T02:48:36.826Z,76.75
2019-06-26T02:49:36.719Z,76.20
2019-06-26T02:50:36.635Z,76.68
2019-06-26T02:51:36.573Z,76.55
2019-06-26T02:52:36.475Z,76.45
2019-06-26T02:53:36.388Z,76.35
2019-06-26T02:54:36.319Z,76.55
2019-06-26T02:55:36.249Z,75.97
2019-06-26T02:56:36.160Z,76.94
2019-06-26T02:57:36.086Z,76.84
2019-06-26T02:58:35.996Z,76.75
2019-06-26T02:59:35.924Z,77.04
2019-06-26T03:00:35.833Z,76.84
2019-06-26T03:01:35.755Z,77.23
2019-06-26T03:02:35.672Z,77.23
2019-06-26T03:03:35.680Z,77.20
2019-06-26T03:04:35.520Z,76.84
2019-06-26T03:05:35.431Z,76.75
2019-06-26T03:06:35.354Z,76.65
2019-06-26T03:07:35.286Z,76.75
2019-06-26T03:08:35.198Z,76.71
2019-06-26T03:09:35.117Z,77.58
2019-06-26T03:10:35.032Z,77.48
2019-06-26T03:11:34.958Z,77.10
2019-06-26T03:12:34.878Z,77.48
2019-06-26T03:13:34.808Z,77.48
2019-06-26T03:14:34.716Z,77.39
2019-06-26T03:15:34.642Z,77.48
2019-06-26T03:16:34.562Z,77.58
2019-06-26T03:17:34.486Z,77.48
2019-06-26T03:18:34.403Z,77.58
2019-06-26T03:19:34.324Z,77.87
2019-06-26T03:20:34.236Z,78.13
2019-06-26T03:21:34.168Z,77.94
2019-06-26T03:22:34.083Z,77.84
2019-06-26T03:23:34.006Z,77.84
2019-06-26T03:24:33.920Z,78.52
2019-06-26T03:25:33.837Z,78.42
2019-06-26T03:26:33.756Z,78.42
2019-06-26T03:27:33.692Z,78.61
2019-06-26T03:28:33.615Z,77.94
2019-06-26T03:29:33.532Z,77.94
2019-06-26T03:30:33.452Z,77.94
2019-06-26T03:31:33.365Z,77.55
2019-06-26T03:32:33.283Z,78.07
2019-06-26T03:33:33.234Z,77.68
2019-06-26T03:34:33.125Z,78.17
2019-06-26T03:35:33.043Z,78.03
2019-06-26T03:36:32.962Z,77.74
2019-06-26T03:37:32.880Z,79.00
2019-06-26T03:38:32.810Z,78.61
2019-06-26T03:39:32.745Z,77.74
2019-06-26T03:40:32.661Z,79.20
2019-06-26T03:41:32.563Z,78.71
2019-06-26T03:42:32.487Z,78.91
2019-06-26T03:43:35.431Z,78.42
2019-06-26T03:44:32.329Z,79.20
2019-06-26T03:45:32.253Z,78.61
2019-06-26T03:46:32.183Z,79.49
2019-06-26T03:47:32.094Z,80.07
2019-06-26T03:48:32.025Z,80.52
2019-06-26T03:49:31.942Z,81.20
2019-06-26T03:50:31.842Z,80.62
2019-06-26T03:51:31.765Z,80.52
2019-06-26T03:52:31.726Z,80.81
2019-06-26T03:53:31.607Z,81.78
2019-06-26T03:54:31.536Z,83.04
2019-06-26T03:55:31.455Z,83.97
2019-06-26T03:56:31.370Z,85.04
2019-06-26T03:57:31.295Z,84.66
2019-06-26T03:58:31.211Z,84.85
2019-06-26T03:59:31.129Z,85.82
2019-06-26T04:00:31.046Z,86.30
2019-06-26T04:01:30.969Z,86.46
2019-06-26T04:02:30.898Z,86.94
2019-06-26T04:03:30.825Z,85.68
2019-06-26T04:04:30.732Z,86.94
2019-06-26T04:05:30.680Z,88.49
2019-06-26T04:06:30.572Z,89.27
2019-06-26T04:07:30.494Z,89.47
2019-06-26T04:08:30.597Z,87.04
2019-06-26T04:09:30.372Z,87.33
2019-06-26T04:10:30.259Z,88.69
2019-06-26T04:11:30.187Z,87.72
2019-06-26T04:12:30.114Z,89.81
2019-06-26T04:13:30.009Z,90.14
2019-06-26T04:14:29.922Z,88.74
2019-06-26T04:15:41.567Z,88.65
2019-06-26T04:16:29.788Z,87.58
2019-06-26T04:17:29.937Z,86.36
2019-06-26T04:18:29.613Z,87.91
2019-06-26T04:19:29.546Z,87.43
2019-06-26T04:20:29.465Z,88.98
2019-06-26T04:21:29.385Z,87.82
2019-06-26T04:22:29.293Z,88.49
2019-06-26T04:23:29.214Z,88.20
2019-06-26T04:24:29.137Z,88.98
2019-06-26T04:25:29.062Z,90.24
2019-06-26T04:26:29.031Z,90.14
2019-06-26T04:27:28.897Z,90.73
2019-06-26T04:28:28.822Z,90.34
2019-06-26T04:29:28.730Z,91.50
2019-06-26T04:30:28.659Z,91.50
2019-06-26T04:31:28.576Z,91.70
2019-06-26T04:32:28.508Z,92.08
2019-06-26T04:33:28.427Z,92.91
2019-06-26T04:34:28.341Z,91.36
2019-06-26T04:35:28.301Z,92.23
2019-06-26T04:36:28.167Z,91.36
2019-06-26T04:37:28.145Z,91.46
2019-06-26T04:38:28.025Z,91.65
2019-06-26T04:39:27.937Z,92.72
2019-06-26T04:40:27.874Z,93.98
2019-06-26T04:41:27.772Z,94.27
2019-06-26T04:42:27.710Z,95.43
2019-06-26T04:43:27.630Z,95.92
2019-06-26T04:44:27.541Z,95.82
2019-06-26T04:45:27.467Z,95.63
2019-06-26T04:46:27.379Z,94.56
2019-06-26T04:47:27.300Z,94.85
2019-06-26T04:48:27.270Z,95.53
2019-06-26T04:49:27.142Z,95.63
2019-06-26T04:50:27.065Z,95.92
2019-06-26T04:51:26.986Z,96.21
2019-06-26T04:52:26.902Z,96.31
2019-06-26T04:53:26.822Z,96.31
2019-06-26T04:54:26.750Z,96.41
2019-06-26T04:55:26.654Z,96.89
2019-06-26T04:56:26.622Z,95.73
2019-06-26T04:57:26.504Z,94.85
2019-06-26T04:58:26.423Z,95.14
2019-06-26T04:59:26.348Z,95.63
2019-06-26T05:00:26.270Z,94.85
2019-06-26T05:01:26.186Z,94.76
2019-06-26T05:02:26.102Z,94.07
2019-06-26T05:03:26.046Z,93.20
2019-06-26T05:04:25.944Z,93.30
2019-06-26T05:05:38.959Z,92.82
2019-06-26T05:06:25.776Z,92.76
2019-06-26T05:07:25.703Z,93.25
2019-06-26T05:08:25.626Z,93.35
2019-06-26T05:09:25.552Z,93.83
2019-06-26T05:10:25.478Z,91.89
2019-06-26T05:11:25.404Z,90.53
2019-06-26T05:12:25.499Z,90.14
2019-06-26T05:13:25.219Z,89.03
2019-06-26T05:14:25.157Z,89.51
2019-06-26T05:15:25.068Z,89.70
2019-06-26T05:16:25.002Z,89.51
2019-06-26T05:17:24.907Z,89.61
2019-06-26T05:18:24.829Z,89.26
2019-06-26T05:19:24.761Z,89.36
2019-06-26T05:20:24.715Z,89.45
2019-06-26T05:21:24.579Z,88.29
2019-06-26T05:22:24.509Z,87.55
2019-06-26T05:23:24.427Z,84.93
2019-06-26T05:24:24.344Z,84.93
2019-06-26T05:25:24.388Z,84.00
2019-06-26T05:26:24.208Z,83.51
2019-06-26T05:27:24.107Z,82.54
2019-06-26T05:28:24.032Z,82.84
2019-06-26T05:29:23.965Z,82.06
2019-06-26T05:30:23.871Z,81.90
2019-06-26T05:31:23.817Z,81.12
2019-06-26T05:32:23.734Z,81.22
2019-06-26T05:33:23.635Z,80.64
2019-06-26T05:34:23.544Z,80.19
2019-06-26T05:35:23.479Z,80.00
2019-06-26T05:36:23.387Z,79.71
2019-06-26T05:37:23.309Z,79.80
2019-06-26T05:38:23.234Z,79.41
2019-06-26T05:39:23.152Z,78.77
2019-06-26T05:40:23.082Z,79.06
2019-06-26T05:41:23.012Z,80.13
2019-06-26T05:42:22.927Z,79.16
2019-06-26T05:43:22.843Z,78.77
2019-06-26T05:44:22.751Z,78.58
2019-06-26T05:45:22.681Z,78.28
2019-06-26T05:46:31.004Z,78.58
2019-06-26T05:47:22.531Z,77.21
2019-06-26T05:48:22.438Z,77.44
2019-06-26T05:49:22.383Z,78.09
2019-06-26T05:50:22.273Z,78.71
2019-06-26T05:51:22.205Z,78.77
2019-06-26T05:52:22.138Z,78.61
2019-06-26T05:53:22.039Z,78.71
2019-06-26T05:54:21.961Z,78.42
2019-06-26T05:55:21.901Z,78.91
2019-06-26T05:56:21.858Z,78.32
2019-06-26T05:57:21.735Z,79.20
2019-06-26T05:58:21.651Z,77.44
2019-06-26T05:59:21.574Z,77.25
2019-06-26T06:00:21.491Z,76.67
2019-06-26T06:01:21.430Z,76.96
2019-06-26T06:02:21.331Z,76.57
2019-06-26T06:03:21.244Z,76.08
2019-06-26T06:04:21.192Z,76.08
2019-06-26T06:05:21.108Z,76.28
2019-06-26T06:06:21.009Z,77.15
2019-06-26T06:07:20.933Z,77.06
2019-06-26T06:08:20.853Z,76.21
2019-06-26T06:09:20.779Z,77.15
2019-06-26T06:10:20.692Z,75.92
2019-06-26T06:11:20.613Z,76.80
2019-06-26T06:12:20.531Z,76.41
2019-06-26T06:13:20.462Z,76.18
2019-06-26T06:14:20.396Z,76.18
2019-06-26T06:15:20.303Z,75.79
2019-06-26T06:16:20.225Z,76.18
2019-06-26T06:17:20.143Z,75.89
2019-06-26T06:18:20.068Z,76.57
2019-06-26T06:19:19.994Z,76.41
2019-06-26T06:20:19.930Z,75.30
2019-06-26T06:21:19.824Z,76.41
2019-06-26T06:22:19.753Z,76.61
2019-06-26T06:23:19.662Z,75.92
2019-06-26T06:24:19.695Z,74.95
2019-06-26T06:25:19.518Z,74.56
2019-06-26T06:26:19.434Z,75.04
2019-06-26T06:27:19.363Z,75.82
2019-06-26T06:28:19.264Z,74.95
2019-06-26T06:29:19.192Z,74.95
2019-06-26T06:30:19.115Z,74.66
2019-06-26T06:31:19.075Z,74.76
2019-06-26T06:32:18.947Z,74.85
2019-06-26T06:33:18.884Z,74.95
2019-06-26T06:34:18.800Z,75.04
2019-06-26T06:35:18.734Z,75.34
2019-06-26T06:36:18.680Z,74.95
2019-06-26T06:37:18.558Z,74.46
2019-06-26T06:38:18.480Z,74.95
2019-06-26T06:39:18.401Z,75.34
2019-06-26T06:40:18.322Z,75.43
2019-06-26T06:41:18.236Z,74.66
2019-06-26T06:42:18.168Z,74.37
2019-06-26T06:43:18.080Z,74.17
2019-06-26T06:44:18.008Z,74.66
2019-06-26T06:45:17.923Z,74.95
2019-06-26T06:46:17.862Z,74.85
2019-06-26T06:47:17.784Z,75.53
2019-06-26T06:48:17.691Z,75.34
2019-06-26T06:49:17.612Z,74.76
2019-06-26T06:50:17.550Z,75.43
2019-06-26T06:51:17.452Z,76.21
2019-06-26T06:52:17.402Z,75.92
2019-06-26T06:53:17.292Z,74.17
2019-06-26T06:54:17.224Z,75.04
2019-06-26T06:55:17.148Z,75.04
2019-06-26T06:56:17.054Z,75.04
2019-06-26T06:57:16.994Z,75.04
2019-06-26T06:58:16.923Z,74.56
2019-06-26T06:59:16.820Z,74.76
2019-06-26T07:00:16.906Z,74.56
2019-06-26T07:01:16.660Z,75.53
2019-06-26T07:02:16.609Z,76.31
2019-06-26T07:03:16.514Z,75.82
2019-06-26T07:04:16.450Z,75.34
2019-06-26T07:05:16.357Z,74.95
2019-06-26T07:06:16.270Z,75.73
2019-06-26T07:07:16.190Z,75.73
2019-06-26T07:08:16.114Z,74.95
2019-06-26T07:09:16.056Z,76.31
2019-06-26T07:10:15.951Z,75.73
2019-06-26T07:11:15.880Z,75.04
2019-06-26T07:12:15.806Z,74.98
2019-06-26T07:13:15.723Z,75.18
2019-06-26T07:14:15.639Z,75.57
2019-06-26T07:15:15.578Z,74.89
2019-06-26T07:16:15.479Z,75.96
2019-06-26T07:17:20.493Z,75.86
2019-06-26T07:18:15.321Z,75.96
2019-06-26T07:19:15.259Z,75.67
2019-06-26T07:20:15.171Z,74.95
2019-06-26T07:21:15.112Z,74.98
2019-06-26T07:22:15.055Z,75.67
2019-06-26T07:23:14.955Z,76.45
2019-06-26T07:24:14.851Z,75.67
2019-06-26T07:25:14.797Z,75.67
2019-06-26T07:26:14.697Z,74.89
2019-06-26T07:27:14.622Z,76.25
2019-06-26T07:28:14.614Z,76.35
2019-06-26T07:29:14.461Z,75.86
2019-06-26T07:30:14.408Z,75.57
2019-06-26T07:31:14.309Z,75.96
2019-06-26T07:32:14.221Z,76.25
2019-06-26T07:33:14.168Z,74.89
2019-06-26T07:34:14.065Z,75.18
2019-06-26T07:35:13.997Z,74.79
2019-06-26T07:36:13.931Z,75.27
2019-06-26T07:37:13.833Z,74.98
2019-06-26T07:38:13.755Z,75.90
2019-06-26T07:39:13.680Z,75.27
2019-06-26T07:40:13.591Z,75.70
2019-06-26T07:41:13.545Z,75.02
2019-06-26T07:42:13.443Z,76.25
2019-06-26T07:43:16.315Z,74.89
2019-06-26T07:44:13.279Z,75.08
2019-06-26T07:45:13.197Z,73.82
2019-06-26T07:46:13.127Z,74.63
2019-06-26T07:47:22.907Z,74.44
2019-06-26T07:48:12.971Z,74.54
2019-06-26T07:49:12.908Z,74.15
2019-06-26T07:50:12.931Z,74.44
2019-06-26T07:51:12.728Z,74.24
2019-06-26T07:52:12.652Z,74.54
2019-06-26T07:53:12.564Z,74.83
2019-06-26T07:54:12.495Z,75.12
2019-06-26T07:55:12.555Z,74.24
2019-06-26T07:56:12.333Z,75.02
2019-06-26T07:57:12.256Z,74.57
2019-06-26T07:58:12.183Z,73.69
2019-06-26T07:59:12.104Z,73.95
2019-06-26T08:00:12.037Z,73.27
2019-06-26T08:01:11.960Z,73.56
2019-06-26T08:02:11.875Z,74.63
2019-06-26T08:03:11.816Z,75.12
2019-06-26T08:04:11.706Z,75.21
2019-06-26T08:05:11.633Z,75.25
2019-06-26T08:06:11.563Z,74.87
2019-06-26T08:07:11.494Z,74.77
2019-06-26T08:08:14.541Z,73.69
2019-06-26T08:09:11.316Z,73.79
2019-06-26T08:10:11.286Z,74.48
2019-06-26T08:11:11.182Z,74.38
2019-06-26T08:12:11.118Z,73.69
2019-06-26T08:13:11.007Z,74.28
2019-06-26T08:14:10.924Z,74.18
2019-06-26T08:15:10.852Z,73.99
2019-06-26T08:16:10.774Z,74.48
2019-06-26T08:17:10.696Z,74.28
2019-06-26T08:18:10.630Z,74.32
2019-06-26T08:19:10.536Z,74.90
2019-06-26T08:20:10.471Z,74.80
2019-06-26T08:21:12.564Z,73.83
2019-06-26T08:22:10.300Z,73.63
2019-06-26T08:23:10.222Z,73.93
2019-06-26T08:24:10.147Z,73.14
2019-06-26T08:25:10.090Z,73.44
2019-06-26T08:26:09.990Z,73.79
2019-06-26T08:27:12.924Z,74.38
2019-06-26T08:28:09.827Z,74.51
2019-06-26T08:29:09.759Z,73.93
2019-06-26T08:30:09.673Z,74.71
2019-06-26T08:31:09.628Z,74.80
2019-06-26T08:32:09.515Z,73.93
2019-06-26T08:33:09.443Z,74.12
2019-06-26T08:34:09.366Z,74.41
2019-06-26T08:35:09.293Z,74.22
2019-06-26T08:36:09.201Z,74.02
2019-06-26T08:37:09.127Z,74.22
2019-06-26T08:38:14.157Z,74.32
2019-06-26T08:39:08.989Z,74.51
2019-06-26T08:40:08.918Z,75.49
2019-06-26T08:41:08.819Z,73.93
2019-06-26T08:42:08.735Z,75.00
2019-06-26T08:43:08.654Z,75.88
2019-06-26T08:44:08.579Z,75.10
2019-06-26T08:45:08.497Z,75.20
2019-06-26T08:46:08.427Z,74.90
2019-06-26T08:47:08.349Z,75.04
2019-06-26T08:48:19.300Z,74.54
2019-06-26T08:49:24.461Z,74.64
2019-06-26T08:50:08.124Z,75.13
2019-06-26T08:51:08.031Z,74.71
2019-06-26T08:52:07.948Z,74.61
2019-06-26T08:53:07.919Z,75.00
2019-06-26T08:54:07.811Z,74.90
2019-06-26T08:55:07.730Z,75.49
2019-06-26T08:56:07.637Z,75.88
2019-06-26T08:57:07.619Z,75.88
2019-06-26T08:58:07.528Z,75.29
2019-06-26T08:59:07.427Z,74.80
2019-06-26T09:00:07.407Z,75.10
2019-06-26T09:01:07.253Z,75.10
2019-06-26T09:02:07.171Z,74.93
2019-06-26T09:03:07.096Z,75.72
2019-06-26T09:04:07.030Z,74.84
2019-06-26T09:05:06.943Z,75.66
2019-06-26T09:06:06.889Z,76.44
2019-06-26T09:07:06.810Z,74.77
2019-06-26T09:08:06.780Z,74.44
2019-06-26T09:09:06.631Z,74.74
2019-06-26T09:10:06.551Z,74.74
2019-06-26T09:11:06.470Z,75.46
2019-06-26T09:12:06.406Z,74.77
2019-06-26T09:13:06.320Z,74.77
2019-06-26T09:14:06.234Z,75.17
2019-06-26T09:15:06.165Z,74.09
2019-06-26T09:16:06.117Z,74.35
2019-06-26T09:17:05.998Z,74.74
2019-06-26T09:18:05.935Z,74.93
2019-06-26T09:19:05.854Z,75.62
2019-06-26T09:20:05.773Z,75.43
2019-06-26T09:21:05.698Z,75.33
2019-06-26T09:22:05.618Z,74.77
2019-06-26T09:23:05.530Z,74.87
2019-06-26T09:24:05.515Z,75.37
2019-06-26T09:25:20.127Z,75.07
2019-06-26T09:26:05.295Z,74.68
2019-06-26T09:27:05.224Z,74.29
2019-06-26T09:28:05.153Z,74.13
2019-06-26T09:29:05.064Z,74.32
2019-06-26T09:30:04.989Z,74.13
2019-06-26T09:31:04.922Z,75.01
2019-06-26T09:32:04.857Z,75.31
2019-06-26T09:33:04.766Z,74.62
2019-06-26T09:34:04.709Z,75.31
2019-06-26T09:35:04.597Z,74.81
2019-06-26T09:36:06.850Z,75.40
2019-06-26T09:37:04.464Z,75.11
2019-06-26T09:38:04.375Z,74.13
2019-06-26T09:39:04.289Z,74.32
2019-06-26T09:40:04.264Z,74.62
2019-06-26T09:41:04.153Z,74.22
2019-06-26T09:42:04.079Z,75.01
2019-06-26T09:43:03.976Z,74.13
2019-06-26T09:44:03.946Z,74.62
2019-06-26T09:45:03.829Z,74.03
2019-06-26T09:46:03.933Z,75.11
2019-06-26T09:47:03.668Z,74.62
2019-06-26T09:48:03.617Z,75.54
2019-06-26T09:49:03.534Z,74.26
2019-06-26T09:50:03.483Z,74.46
2019-06-26T09:51:03.400Z,73.97
2019-06-26T09:52:03.288Z,74.26
2019-06-26T09:53:05.370Z,74.46
2019-06-26T09:54:03.258Z,74.65
2019-06-26T09:55:03.090Z,74.49
2019-06-26T09:56:02.979Z,74.49
2019-06-26T09:57:02.902Z,75.18
2019-06-26T09:58:02.817Z,74.01
2019-06-26T09:59:02.731Z,74.01
2019-06-26T10:00:02.674Z,74.88
2019-06-26T10:01:02.585Z,74.26
2019-06-26T10:02:02.510Z,74.55
2019-06-26T10:03:02.456Z,74.95
2019-06-26T10:04:02.377Z,74.85
2019-06-26T10:05:02.700Z,75.24
2019-06-26T10:06:02.230Z,73.48
2019-06-26T10:07:02.121Z,74.26
2019-06-26T10:08:02.046Z,74.07
2019-06-26T10:09:01.971Z,74.95
2019-06-26T10:10:01.884Z,74.75
2019-06-26T10:11:01.838Z,75.04
2019-06-26T10:12:01.743Z,76.42
2019-06-26T10:13:01.652Z,73.97
2019-06-26T10:14:01.576Z,74.95
2019-06-26T10:15:01.500Z,75.54
2019-06-26T10:16:01.419Z,75.04
2019-06-26T10:17:01.356Z,76.22
2019-06-26T10:18:01.278Z,74.81
2019-06-26T10:19:10.220Z,75.73
2019-06-26T10:20:01.124Z,75.83
2019-06-26T10:21:01.033Z,75.31
2019-06-26T10:22:00.978Z,75.15
2019-06-26T10:23:00.881Z,75.01
2019-06-26T10:24:00.816Z,74.13
2019-06-26T10:25:00.849Z,73.44
2019-06-26T10:26:00.648Z,74.55
2019-06-26T10:27:00.583Z,74.36
2019-06-26T10:28:00.510Z,74.46
2019-06-26T10:29:00.428Z,74.07
2019-06-26T10:30:00.340Z,74.20
2019-06-26T10:31:00.277Z,74.16
2019-06-26T10:32:00.319Z,74.10
2019-06-26T10:33:00.120Z,74.01
2019-06-26T10:34:00.048Z,73.52
2019-06-26T10:34:59.975Z,73.42
2019-06-26T10:35:59.878Z,73.42
2019-06-26T10:36:59.803Z,73.71
2019-06-26T10:37:59.717Z,74.01
2019-06-26T10:38:59.661Z,72.96
2019-06-26T10:39:59.571Z,74.24
2019-06-26T10:40:59.494Z,73.85
2019-06-26T10:41:59.428Z,73.26
2019-06-26T10:42:59.338Z,73.46
2019-06-26T10:43:59.254Z,70.68
2019-06-26T10:44:59.182Z,69.21
2019-06-26T10:45:59.098Z,69.05
2019-06-26T10:46:59.029Z,68.65
2019-06-26T10:47:58.948Z,69.64
2019-06-26T10:48:58.870Z,70.51
2019-06-26T10:49:58.799Z,70.61
2019-06-26T10:50:59.200Z,70.61
2019-06-26T10:51:58.642Z,70.55
2019-06-26T10:52:58.565Z,70.26
2019-06-26T10:53:58.492Z,70.26
2019-06-26T10:54:58.421Z,70.55
2019-06-26T10:55:58.326Z,71.23
2019-06-26T10:56:58.248Z,70.84
2019-06-26T10:57:58.185Z,70.84
2019-06-26T10:58:58.117Z,70.00
2019-06-26T10:59:58.028Z,70.19
2019-06-26T11:00:58.048Z,69.70
2019-06-26T11:01:57.864Z,69.51
2019-06-26T11:02:57.830Z,69.60
2019-06-26T11:03:57.722Z,69.51
2019-06-26T11:04:57.637Z,68.56
2019-06-26T11:05:57.560Z,68.66
2019-06-26T11:06:57.503Z,67.19
2019-06-26T11:07:57.403Z,67.68
2019-06-26T11:08:57.336Z,69.15
2019-06-26T11:09:57.299Z,66.63
2019-06-26T11:10:57.185Z,66.83
2019-06-26T11:11:57.105Z,65.65
2019-06-26T11:12:57.026Z,64.57
2019-06-26T11:13:56.944Z,64.57
2019-06-26T11:14:56.886Z,64.44
2019-06-26T11:15:56.809Z,64.93
2019-06-26T11:16:56.730Z,66.40
2019-06-26T11:17:56.669Z,67.19
2019-06-26T11:18:56.562Z,66.99
2019-06-26T11:19:56.493Z,67.68
2019-06-26T11:20:56.425Z,67.25
2019-06-26T11:21:56.387Z,67.45
2019-06-26T11:22:56.268Z,66.86
2019-06-26T11:23:56.177Z,66.17
2019-06-26T11:24:56.106Z,65.06
2019-06-26T11:25:56.045Z,65.68
2019-06-26T11:26:55.952Z,65.19
2019-06-26T11:27:55.875Z,66.47
2019-06-26T11:28:55.827Z,66.56
2019-06-26T11:29:55.721Z,67.87
2019-06-26T11:30:55.664Z,68.16
2019-06-26T11:31:55.577Z,66.20
2019-06-26T11:32:55.503Z,65.45
2019-06-26T11:33:55.413Z,64.86
2019-06-26T11:34:55.347Z,65.25
2019-06-26T11:35:55.281Z,66.24
2019-06-26T11:37:04.001Z,66.53
2019-06-26T11:37:55.113Z,65.45
2019-06-26T11:38:55.023Z,66.33
2019-06-26T11:39:55.008Z,65.36
2019-06-26T11:40:54.905Z,66.33
2019-06-26T11:41:54.802Z,65.84
2019-06-26T11:42:54.729Z,65.25
2019-06-26T11:43:54.654Z,65.16
2019-06-26T11:44:54.575Z,65.75
2019-06-26T11:45:54.501Z,66.14
2019-06-26T11:46:54.417Z,66.33
2019-06-26T11:47:54.342Z,65.72
2019-06-26T11:48:54.501Z,66.40
2019-06-26T11:50:00.028Z,67.84
2019-06-26T11:50:54.113Z,67.77
2019-06-26T11:51:54.060Z,68.37
2019-06-26T11:52:53.969Z,67.58
2019-06-26T11:53:53.898Z,67.58
2019-06-26T11:55:02.693Z,68.66
2019-06-26T11:55:53.729Z,69.44
2019-06-26T11:56:53.664Z,69.05
2019-06-26T11:57:53.599Z,67.97
2019-06-26T11:58:53.526Z,67.58
2019-06-26T11:59:53.443Z,67.58
2019-06-26T12:00:53.382Z,67.48
2019-06-26T12:01:53.399Z,67.77
2019-06-26T12:02:53.213Z,67.68
2019-06-26T12:03:53.127Z,66.53
2019-06-26T12:04:53.048Z,67.48
2019-06-26T12:05:52.963Z,67.61
2019-06-26T12:06:52.909Z,67.91
2019-06-26T12:07:52.818Z,67.68
2019-06-26T12:08:52.750Z,66.99
2019-06-26T12:09:52.701Z,67.77
2019-06-26T12:10:52.581Z,67.12
2019-06-26T12:11:52.514Z,66.63
2019-06-26T12:12:52.433Z,67.74
2019-06-26T12:13:52.350Z,65.48
2019-06-26T12:14:52.297Z,65.32
2019-06-26T12:15:52.221Z,65.22
2019-06-26T12:16:52.128Z,64.34
2019-06-26T12:17:52.071Z,64.43
2019-06-26T12:18:51.982Z,64.43
2019-06-26T12:19:51.901Z,64.43
2019-06-26T12:20:51.842Z,65.61
2019-06-26T12:21:51.787Z,65.09
2019-06-26T12:22:51.676Z,65.71
2019-06-26T12:23:51.603Z,65.71
2019-06-26T12:24:51.533Z,64.66
2019-06-26T12:25:51.452Z,63.58
2019-06-26T12:26:51.386Z,63.88
2019-06-26T12:27:51.300Z,64.76
2019-06-26T12:28:51.216Z,64.17
2019-06-26T12:29:51.137Z,65.32
2019-06-26T12:30:51.066Z,65.91
2019-06-26T12:31:50.986Z,65.29
2019-06-26T12:33:02.095Z,66.17
2019-06-26T12:33:50.846Z,65.09
2019-06-26T12:34:50.770Z,65.48
2019-06-26T12:35:50.675Z,65.29
2019-06-26T12:36:50.703Z,64.70
2019-06-26T12:37:50.537Z,65.06
2019-06-26T12:38:50.466Z,65.25
2019-06-26T12:39:50.384Z,65.94
2019-06-26T12:40:50.309Z,65.94
2019-06-26T12:41:50.245Z,66.33
2019-06-26T12:42:50.174Z,66.04
2019-06-26T12:43:50.077Z,66.14
2019-06-26T12:44:49.994Z,66.14
2019-06-26T12:45:49.921Z,65.36
2019-06-26T12:46:49.850Z,65.84
2019-06-26T12:47:49.785Z,65.94
2019-06-26T12:48:49.716Z,64.89
2019-06-26T12:49:49.655Z,64.21
2019-06-26T12:50:49.542Z,65.78
2019-06-26T12:51:49.464Z,65.39